Time;durP1;ratioP1;P1;durP2;ratioP2;P2;SDS_P1;SDS_P2;PMS_P1;PMS_P2;Temp;Humidity;BMP_temperature;BMP_pressure;BME280_temperature;BME280_humidity;BME280_pressure;Samples;Min_cycle;Max_cycle;Signal;HPM_P1;HPM_P2
2023/06/25 00:01:55;;;;;;;6.75;5.15;;;;;;;18.32;100.00;96236.00;5058118;28;20693;-84
2023/06/25 00:04:21;;;;;;;9.82;5.13;;;;;;;18.40;100.00;96234.06;5043242;28;20533;-86
2023/06/25 00:06:47;;;;;;;7.85;5.68;;;;;;;18.47;100.00;96259.56;5044884;28;20028;-87
2023/06/25 00:09:12;;;;;;;6.63;5.72;;;;;;;18.43;100.00;96278.31;5062343;28;20020;-86
2023/06/25 00:11:38;;;;;;;6.32;5.40;;;;;;;18.46;100.00;96281.56;5044665;28;20681;-87
2023/06/25 00:14:03;;;;;;;5.70;5.20;;;;;;;18.46;100.00;96305.19;5046322;28;20027;-89
2023/06/25 00:16:29;;;;;;;7.15;6.13;;;;;;;18.48;100.00;96387.97;5052172;28;20021;-87
2023/06/25 00:18:56;;;;;;;10.45;7.20;;;;;;;18.32;100.00;96472.94;5058980;28;20024;-86
2023/06/25 00:21:22;;;;;;;6.75;6.05;;;;;;;18.35;100.00;96534.72;5062077;28;20123;-89
2023/06/25 00:23:47;;;;;;;7.38;6.80;;;;;;;18.27;100.00;96574.97;5045963;28;20128;-87
2023/06/25 00:26:13;;;;;;;6.88;6.28;;;;;;;18.27;100.00;96588.06;5062714;28;20024;-87
2023/06/25 00:28:38;;;;;;;8.02;7.20;;;;;;;18.22;100.00;96602.72;5054735;28;20112;-86
2023/06/25 00:31:05;;;;;;;9.38;7.10;;;;;;;18.15;100.00;96602.63;5057939;28;20492;-87
2023/06/25 00:33:32;;;;;;;9.35;7.47;;;;;;;18.16;100.00;96621.81;5045490;28;20035;-88
2023/06/25 00:35:57;;;;;;;11.07;7.07;;;;;;;18.09;100.00;96660.19;5046274;28;20477;-87
2023/06/25 00:38:23;;;;;;;8.63;6.65;;;;;;;18.06;100.00;96671.03;5049372;28;20066;-87
2023/06/25 00:40:49;;;;;;;7.28;6.55;;;;;;;18.00;100.00;96672.56;5051411;28;20028;-88
2023/06/25 00:43:15;;;;;;;11.30;7.18;;;;;;;17.94;100.00;96672.44;5046814;28;20131;-87
2023/06/25 00:45:42;;;;;;;9.70;6.65;;;;;;;17.92;100.00;96685.72;5062383;28;20127;-87
2023/06/25 00:48:08;;;;;;;13.13;6.90;;;;;;;17.86;100.00;96689.03;5046069;28;20085;-88
2023/06/25 00:50:33;;;;;;;11.30;6.97;;;;;;;17.82;100.00;96711.31;5061973;28;20036;-88
2023/06/25 00:53:01;;;;;;;8.68;7.30;;;;;;;17.82;100.00;96721.81;5049664;28;20066;-88
2023/06/25 00:55:27;;;;;;;8.77;7.03;;;;;;;17.78;100.00;96725.78;5027263;28;20498;-88
2023/06/25 00:57:55;;;;;;;9.85;7.10;;;;;;;17.75;100.00;96720.88;5054861;28;20286;-89
2023/06/25 01:00:24;;;;;;;7.57;6.40;;;;;;;17.69;100.00;96716.34;5049550;28;20551;-89
2023/06/25 01:03:13;;;;;;;10.32;6.57;;;;;;;17.63;100.00;96730.09;5033808;28;20060;-89
2023/06/25 01:05:41;;;;;;;13.00;7.60;;;;;;;17.58;100.00;96745.53;5045850;28;20068;-87
2023/06/25 01:08:10;;;;;;;10.48;8.20;;;;;;;17.56;100.00;96760.59;5063654;28;20078;-89
2023/06/25 01:10:37;;;;;;;12.52;7.93;;;;;;;17.55;100.00;96761.53;5042038;28;20068;-89
2023/06/25 01:13:03;;;;;;;12.73;8.35;;;;;;;17.59;100.00;96776.00;5043754;28;20102;-90
2023/06/25 01:15:29;;;;;;;8.43;7.63;;;;;;;17.51;100.00;96771.53;5024318;28;20850;-88
2023/06/25 01:17:57;;;;;;;10.88;7.13;;;;;;;17.51;100.00;96779.41;5047217;28;20021;-89
2023/06/25 01:20:28;;;;;;;11.07;7.57;;;;;;;17.43;100.00;96778.63;5044627;28;20071;-90
2023/06/25 01:22:55;;;;;;;13.75;7.72;;;;;;;17.35;100.00;96796.00;5062133;28;20027;-89
2023/06/25 01:25:20;;;;;;;12.55;8.00;;;;;;;17.28;100.00;96792.38;5045959;28;20036;-90
2023/06/25 01:27:47;;;;;;;10.90;8.65;;;;;;;17.42;100.00;96804.00;5063455;28;20036;-91
2023/06/25 01:30:14;;;;;;;12.65;10.00;;;;;;;17.59;100.00;96810.06;5055536;28;20119;-90
2023/06/25 01:32:41;;;;;;;9.73;8.73;;;;;;;17.58;100.00;96805.78;5043154;28;20032;-90
2023/06/25 01:35:08;;;;;;;8.40;7.60;;;;;;;17.61;100.00;96808.06;5043487;28;20056;-89
2023/06/25 01:37:33;;;;;;;9.82;8.93;;;;;;;17.56;100.00;96813.00;5054703;28;20032;-88
2023/06/25 01:39:59;;;;;;;11.60;10.32;;;;;;;17.16;100.00;96819.09;5044239;28;20024;-85
2023/06/25 01:42:25;;;;;;;14.45;9.27;;;;;;;17.47;100.00;96842.78;5048773;28;20385;-85
2023/06/25 01:44:50;;;;;;;12.98;8.85;;;;;;;17.54;100.00;96846.38;5038858;28;20587;-87
2023/06/25 01:47:15;;;;;;;10.15;8.70;;;;;;;17.52;100.00;96845.75;5061577;28;20032;-87
2023/06/25 01:49:41;;;;;;;12.77;8.70;;;;;;;17.47;100.00;96829.69;5047396;28;20130;-86
2023/06/25 01:52:09;;;;;;;10.75;8.30;;;;;;;17.56;100.00;96834.81;5061874;28;20486;-90
2023/06/25 01:54:35;;;;;;;11.55;8.77;;;;;;;17.59;100.00;96831.03;5049228;28;20029;-88
2023/06/25 01:57:01;;;;;;;10.02;8.52;;;;;;;17.63;100.00;96832.31;5047522;28;20478;-90
2023/06/25 01:59:29;;;;;;;10.63;8.65;;;;;;;17.61;100.00;96829.03;5061945;28;20037;-90
2023/06/25 02:01:54;;;;;;;11.40;8.57;;;;;;;17.59;100.00;96820.53;5062902;28;20029;-89
2023/06/25 02:04:20;;;;;;;10.00;9.00;;;;;;;17.61;100.00;96823.78;5054294;28;20537;-88
2023/06/25 02:06:46;;;;;;;10.63;9.43;;;;;;;17.59;100.00;96823.16;5056384;28;20123;-88
2023/06/25 02:09:13;;;;;;;11.68;8.63;;;;;;;17.58;100.00;96850.34;5041979;28;20082;-88
2023/06/25 02:11:38;;;;;;;10.85;9.85;;;;;;;17.70;100.00;96862.94;5025050;28;20055;-89
2023/06/25 02:14:05;;;;;;;10.55;9.23;;;;;;;17.71;100.00;96851.47;5056906;28;20569;-87
2023/06/25 02:16:30;;;;;;;10.75;9.25;;;;;;;17.76;100.00;96854.38;5035852;28;20036;-88
2023/06/25 02:18:56;;;;;;;12.98;9.13;;;;;;;17.85;100.00;96860.44;5059471;28;20532;-88
2023/06/25 02:21:21;;;;;;;13.43;8.90;;;;;;;17.84;100.00;96854.38;5044017;28;20036;-87
2023/06/25 02:23:47;;;;;;;10.43;7.90;;;;;;;17.80;100.00;96855.69;5043609;28;20032;-86
2023/06/25 02:26:13;;;;;;;14.50;10.00;;;;;;;17.86;100.00;96865.50;5043902;28;20486;-89
2023/06/25 02:28:38;;;;;;;12.38;10.40;;;;;;;17.94;100.00;96883.03;5060204;28;20070;-93
2023/06/25 02:31:04;;;;;;;15.63;14.00;;;;;;;18.08;100.00;96899.84;5046571;28;20102;-88
2023/06/25 02:33:29;;;;;;;21.42;15.35;;;;;;;18.15;100.00;96904.25;5041667;28;20032;-91
2023/06/25 02:35:56;;;;;;;25.08;17.45;;;;;;;18.21;100.00;96926.38;5037730;28;20453;-87
2023/06/25 02:38:21;;;;;;;25.20;16.90;;;;;;;18.27;100.00;96930.94;5041222;28;20482;-92
2023/06/25 02:40:46;;;;;;;26.58;17.30;;;;;;;18.33;100.00;96952.06;5052787;28;20024;-86
2023/06/25 02:43:12;;;;;;;22.52;16.25;;;;;;;18.33;100.00;96946.81;5059466;28;20028;-81
2023/06/25 02:45:37;;;;;;;21.65;15.13;;;;;;;18.34;100.00;96943.22;5052818;28;20025;-91
2023/06/25 02:48:03;;;;;;;19.33;15.57;;;;;;;18.34;100.00;96945.03;5042152;28;20108;-90
2023/06/25 02:50:28;;;;;;;22.98;16.13;;;;;;;18.33;100.00;96946.81;5040372;28;20041;-88
2023/06/25 02:52:54;;;;;;;18.10;14.45;;;;;;;18.40;100.00;96968.78;5054711;28;20112;-91
2023/06/25 02:55:19;;;;;;;17.42;14.52;;;;;;;18.40;100.00;96967.97;5048540;28;20052;-85
2023/06/25 02:57:45;;;;;;;20.75;13.32;;;;;;;18.34;100.00;96968.63;5062336;28;20409;-91
2023/06/25 03:00:11;;;;;;;20.63;14.13;;;;;;;18.35;100.00;96965.84;5041786;28;20033;-92
2023/06/25 03:02:36;;;;;;;14.45;12.95;;;;;;;18.36;100.00;96958.81;5034337;28;20063;-90
2023/06/25 03:05:01;;;;;;;16.90;13.70;;;;;;;18.44;100.00;96958.75;5040612;28;20029;-89
2023/06/25 03:07:27;;;;;;;20.27;13.40;;;;;;;18.42;100.00;96950.25;5031165;28;20429;-88
2023/06/25 03:09:52;;;;;;;17.77;14.57;;;;;;;18.48;100.00;96959.25;5062225;28;20041;-92
2023/06/25 03:12:18;;;;;;;20.48;13.35;;;;;;;18.52;100.00;96960.59;5044499;28;20123;-88
2023/06/25 03:14:43;;;;;;;15.98;13.20;;;;;;;18.53;100.00;96957.78;5061301;28;20056;-89
2023/06/25 03:17:09;;;;;;;22.88;14.95;;;;;;;18.48;100.00;96954.81;5060846;28;20103;-89
2023/06/25 03:19:34;;;;;;;17.50;14.00;;;;;;;18.55;100.00;96960.25;5047784;28;20032;-90
2023/06/25 03:22:00;;;;;;;20.27;13.35;;;;;;;18.56;100.00;96957.44;5060556;28;20107;-89
2023/06/25 03:24:25;;;;;;;16.50;14.23;;;;;;;18.59;100.00;96961.53;5059726;28;20486;-90
2023/06/25 03:26:51;;;;;;;18.92;13.23;;;;;;;18.53;100.00;96957.78;5041467;28;20025;-89
2023/06/25 03:29:16;;;;;;;16.67;12.95;;;;;;;18.56;100.00;96957.44;5036010;28;20124;-90
2023/06/25 03:31:42;;;;;;;18.77;13.80;;;;;;;18.62;100.00;96956.75;5056419;28;20024;-92
2023/06/25 03:34:08;;;;;;;17.70;13.18;;;;;;;18.66;100.00;96959.84;5054118;28;20109;-91
2023/06/25 03:36:33;;;;;;;21.55;13.77;;;;;;;18.67;100.00;96959.69;5060283;28;20485;-90
2023/06/25 03:38:59;;;;;;;17.63;13.13;;;;;;;18.65;100.00;96959.06;5061253;28;20480;-88
2023/06/25 03:41:25;;;;;;;16.90;12.82;;;;;;;18.71;100.00;96961.00;5047319;28;20028;-90
2023/06/25 03:43:50;;;;;;;13.52;10.88;;;;;;;18.65;100.00;96951.19;5062895;28;20066;-90
2023/06/25 03:46:16;;;;;;;17.83;12.65;;;;;;;18.65;100.00;96932.81;5049708;28;20050;-89
2023/06/25 03:48:45;;;;;;;16.65;12.77;;;;;;;18.68;100.00;96915.88;5028305;28;20021;-90
2023/06/25 03:51:11;;;;;;;21.33;14.40;;;;;;;18.73;100.00;96921.44;5056280;28;20043;-81
2023/06/25 03:53:39;;;;;;;18.73;14.82;;;;;;;18.82;100.00;96907.25;5062669;28;20032;-83
2023/06/25 03:56:05;;;;;;;24.55;16.50;;;;;;;18.80;100.00;96899.56;5052005;28;20439;-78
2023/06/25 03:58:30;;;;;;;22.70;17.02;;;;;;;18.79;100.00;96891.84;5062072;28;20056;-87
2023/06/25 04:00:56;;;;;;;25.75;16.73;;;;;;;18.89;100.00;96900.31;5064208;28;20072;-85
2023/06/25 04:03:22;;;;;;;27.10;17.05;;;;;;;18.89;100.00;96905.56;5049103;28;20051;-92
2023/06/25 04:05:48;;;;;;;23.52;16.95;;;;;;;18.82;100.00;96902.00;5049768;28;20082;-85
2023/06/25 04:08:13;;;;;;;27.25;17.40;;;;;;;18.81;100.00;96895.13;5061251;28;20078;-83
2023/06/25 04:10:40;;;;;;;25.65;17.63;;;;;;;18.82;100.00;96891.50;5042046;28;20079;-84
2023/06/25 04:13:05;;;;;;;24.88;18.13;;;;;;;18.80;100.00;96889.06;5052125;28;20035;-81
2023/06/25 04:15:31;;;;;;;21.83;18.92;;;;;;;18.84;100.00;96892.16;5062196;28;20017;-90
2023/06/25 04:17:56;;;;;;;25.75;18.40;;;;;;;18.76;100.00;96879.88;5044903;28;20466;-88
2023/06/25 04:20:25;;;;;;;24.75;17.67;;;;;;;18.74;100.00;96894.19;5041904;28;20060;-82
2023/06/25 04:22:50;;;;;;;17.83;15.93;;;;;;;18.73;100.00;96900.41;5059853;28;20025;-83
2023/06/25 04:25:15;;;;;;;20.85;15.60;;;;;;;18.68;100.00;96889.63;5061685;28;20031;-81
2023/06/25 04:27:41;;;;;;;15.93;14.02;;;;;;;18.67;100.00;96894.06;5061936;28;20510;-84
2023/06/25 04:30:07;;;;;;;15.73;13.95;;;;;;;18.68;100.00;96881.75;5062933;28;20074;-91
2023/06/25 04:32:33;;;;;;;19.05;15.77;;;;;;;18.69;100.00;96878.13;5062914;28;20033;-88
2023/06/25 04:34:58;;;;;;;17.58;15.02;;;;;;;18.84;100.00;96892.16;5057863;28;20037;-87
2023/06/25 04:37:24;;;;;;;22.20;16.80;;;;;;;18.85;100.00;96888.53;5054706;28;20021;-91
2023/06/25 04:39:49;;;;;;;22.25;16.92;;;;;;;18.91;100.00;96906.25;5062063;28;20031;-85
2023/06/25 04:42:14;;;;;;;27.85;19.00;;;;;;;18.91;100.00;96904.41;5046604;28;20514;-92
2023/06/25 04:44:40;;;;;;;22.17;19.20;;;;;;;18.91;100.00;96904.41;5045636;28;20070;-86
2023/06/25 04:47:05;;;;;;;24.77;19.20;;;;;;;18.89;100.00;96922.16;5043482;28;20036;-88
2023/06/25 04:49:31;;;;;;;25.10;19.08;;;;;;;18.92;100.00;96929.69;5033853;28;20041;-87
2023/06/25 04:51:56;;;;;;;24.52;19.38;;;;;;;18.92;100.00;96926.25;5028353;28;20024;-86
2023/06/25 04:54:22;;;;;;;27.77;20.00;;;;;;;18.96;100.00;96924.91;5045770;28;20024;-81
2023/06/25 04:56:47;;;;;;;26.55;19.90;;;;;;;19.08;100.00;96931.41;5062180;28;20040;-87
2023/06/25 04:59:13;;;;;;;28.33;18.90;;;;;;;19.11;100.00;96923.16;5045097;28;20035;-87
2023/06/25 05:01:39;;;;;;;25.75;18.25;;;;;;;19.11;100.00;96899.50;5041490;28;20395;-88
2023/06/25 05:04:04;;;;;;;23.13;18.60;;;;;;;19.19;100.00;96875.81;5060966;28;20119;-88
2023/06/25 05:06:30;;;;;;;22.35;17.92;;;;;;;19.18;100.00;96847.91;5050616;28;20116;-88
2023/06/25 05:08:56;;;;;;;22.92;18.42;;;;;;;19.23;100.00;96821.91;5058110;28;20379;-91
2023/06/25 05:11:21;;;;;;;20.15;16.77;;;;;;;19.43;100.00;96796.78;5045832;28;20119;-86
2023/06/25 05:13:48;;;;;;;23.40;17.20;;;;;;;19.59;100.00;96797.59;5062445;28;20885;-88
2023/06/25 05:16:13;;;;;;;18.60;15.98;;;;;;;19.79;100.00;96778.47;5055403;28;20037;-83
2023/06/25 05:18:39;;;;;;;17.90;15.82;;;;;;;19.87;100.00;96699.47;5037838;28;20415;-87
2023/06/25 05:21:05;;;;;;;19.08;15.38;;;;;;;19.91;100.00;96610.47;5048155;28;20106;-85
2023/06/25 05:23:38;;;;;;;18.92;16.13;;;;;;;19.80;100.00;96553.13;5046539;28;20477;-82
2023/06/25 05:26:03;;;;;;;14.90;13.05;;;;;;;19.72;100.00;96455.94;5044344;28;20825;-83
2023/06/25 05:28:29;;;;;;;15.00;13.48;;;;;;;19.86;100.00;96434.00;5055229;28;20033;-90
2023/06/25 05:30:54;;;;;;;16.05;12.90;;;;;;;19.96;100.00;96451.09;5026133;28;20395;-89
2023/06/25 05:33:20;;;;;;;16.67;13.45;;;;;;;19.88;100.00;96467.00;5062937;28;20108;-88
2023/06/25 05:35:45;;;;;;;17.85;14.50;;;;;;;19.88;100.00;96476.72;5062950;28;20035;-89
2023/06/25 05:38:10;;;;;;;13.00;11.35;;;;;;;19.94;100.00;96397.03;5048805;28;20085;-88
2023/06/25 05:40:36;;;;;;;11.45;10.30;;;;;;;20.17;100.00;96280.97;5063963;28;20111;-87
2023/06/25 05:43:01;;;;;;;11.70;10.48;;;;;;;20.46;100.00;96136.72;5045308;28;20074;-88
2023/06/25 05:45:27;;;;;;;9.95;8.88;;;;;;;22.33;100.00;95401.75;5041710;28;20029;-85
2023/06/25 05:47:52;;;;;;;9.95;8.88;;;;;;;21.03;100.00;95418.63;5056132;28;20020;-86
2023/06/25 05:50:17;;;;;;;11.25;9.90;;;;;;;20.37;100.00;95711.56;5040288;28;20055;-87
2023/06/25 05:52:43;;;;;;;11.82;10.57;;;;;;;20.09;100.00;96103.09;5052778;28;20067;-84
2023/06/25 05:55:09;;;;;;;12.52;11.30;;;;;;;19.73;100.00;96240.16;5043377;28;20035;-82
2023/06/25 05:57:34;;;;;;;17.55;12.07;;;;;;;19.77;100.00;96353.66;5059021;28;20035;-83
2023/06/25 06:00:00;;;;;;;13.55;11.35;;;;;;;19.59;100.00;96382.22;5060067;28;20486;-86
2023/06/25 06:02:26;;;;;;;12.30;9.48;;;;;;;19.38;100.00;96401.44;5037785;28;20032;-91
2023/06/25 06:04:51;;;;;;;12.43;10.90;;;;;;;19.50;100.00;96447.28;5055508;28;20146;-87
2023/06/25 06:07:17;;;;;;;11.75;9.80;;;;;;;19.59;100.00;96495.25;5047647;28;20028;-89
2023/06/25 06:09:43;;;;;;;13.77;12.48;;;;;;;19.62;100.00;96568.53;5050276;28;20025;-90
2023/06/25 06:12:08;;;;;;;18.02;14.30;;;;;;;19.60;100.00;96630.97;5059393;28;20452;-88
2023/06/25 06:14:34;;;;;;;28.83;18.42;;;;;;;19.43;100.00;96672.44;5051413;28;20033;-87
2023/06/25 06:17:00;;;;;;;25.42;17.27;;;;;;;19.40;100.00;96707.78;5058004;28;20020;-87
2023/06/25 06:19:25;;;;;;;19.08;16.23;;;;;;;19.43;100.00;96740.75;5059742;28;20028;-88
2023/06/25 06:21:51;;;;;;;18.10;15.77;;;;;;;19.50;100.00;96775.84;5060587;28;20056;-83
2023/06/25 06:24:16;;;;;;;17.83;15.00;;;;;;;19.50;100.00;96807.41;5049922;28;20028;-89
2023/06/25 06:26:41;;;;;;;24.75;16.40;;;;;;;19.52;100.00;96817.75;5046096;28;20028;-88
2023/06/25 06:29:07;;;;;;;18.80;15.70;;;;;;;19.52;100.00;96828.25;5052308;28;20040;-86
2023/06/25 06:31:32;;;;;;;19.83;16.33;;;;;;;19.55;100.00;96841.03;5051697;28;20509;-90
2023/06/25 06:33:58;;;;;;;17.40;15.48;;;;;;;19.58;100.00;96833.63;5055510;28;20024;-86
2023/06/25 06:36:24;;;;;;;20.10;15.50;;;;;;;19.53;100.00;96835.94;5045570;28;20036;-87
2023/06/25 06:38:50;;;;;;;16.20;14.60;;;;;;;19.61;100.00;96843.78;5062632;28;20028;-90
2023/06/25 06:41:15;;;;;;;16.75;14.60;;;;;;;19.64;100.00;96832.91;5041569;28;20507;-91
2023/06/25 06:43:41;;;;;;;18.85;16.33;;;;;;;19.71;100.00;96841.69;5040747;28;20063;-87
2023/06/25 06:46:06;;;;;;;16.15;14.50;;;;;;;19.60;100.00;96820.28;5049302;28;20033;-87
2023/06/25 06:48:31;;;;;;;22.30;16.30;;;;;;;19.70;100.00;96794.53;5051761;28;20754;-90
2023/06/25 06:50:57;;;;;;;21.08;15.27;;;;;;;19.68;100.00;96773.66;5061368;28;20460;-92
2023/06/25 06:53:22;;;;;;;19.00;16.45;;;;;;;19.79;100.00;96770.59;5030438;28;20021;-90
2023/06/25 06:55:48;;;;;;;17.50;14.20;;;;;;;19.76;100.00;96733.31;5044114;28;20025;-91
2023/06/25 06:58:13;;;;;;;15.50;13.10;;;;;;;19.84;100.00;96720.88;5060882;28;20016;-90
2023/06/25 07:00:39;;;;;;;16.67;12.40;;;;;;;19.89;100.00;96678.25;5050941;28;20860;-90
2023/06/25 07:03:04;;;;;;;14.05;12.65;;;;;;;20.05;100.00;96659.59;5043556;28;20036;-92
2023/06/25 07:05:30;;;;;;;15.25;13.65;;;;;;;20.10;100.00;96662.47;5052132;28;20036;-92
2023/06/25 07:07:55;;;;;;;17.70;12.07;;;;;;;20.09;100.00;96644.25;5045692;28;20021;-91
2023/06/25 07:10:21;;;;;;;15.55;13.43;;;;;;;20.22;100.00;96579.41;5062554;28;20025;-88
2023/06/25 07:12:46;;;;;;;13.68;12.27;;;;;;;20.22;100.00;96558.34;5040976;28;20029;-88
2023/06/25 07:15:12;;;;;;;13.20;11.27;;;;;;;20.24;100.00;96530.03;5045773;28;20024;-86
2023/06/25 07:17:37;;;;;;;10.93;9.55;;;;;;;20.26;100.00;96478.03;5051786;28;20383;-85
2023/06/25 07:20:03;;;;;;;12.82;11.20;;;;;;;20.04;100.00;96400.13;5053691;28;20060;-91
2023/06/25 07:22:28;;;;;;;12.38;10.52;;;;;;;20.28;100.00;96346.25;5033992;28;20036;-85
2023/06/25 07:24:53;;;;;;;12.65;11.45;;;;;;;20.30;100.00;96313.47;5056200;28;20039;-87
2023/06/25 07:27:19;;;;;;;14.27;10.82;;;;;;;20.43;100.00;96217.94;5059584;28;20027;-86
2023/06/25 07:29:44;;;;;;;12.77;11.20;;;;;;;20.54;100.00;96264.75;5045523;28;20430;-83
2023/06/25 07:32:09;;;;;;;14.65;12.80;;;;;;;20.75;100.00;96266.38;5046378;28;20033;-84
2023/06/25 07:34:36;;;;;;;12.68;11.35;;;;;;;20.93;100.00;96174.41;5038945;28;20025;-84
2023/06/25 07:37:01;;;;;;;11.00;10.05;;;;;;;20.84;100.00;95928.00;5057078;28;20173;-84
2023/06/25 07:39:32;;;;;;;10.57;9.18;;;;;;;21.05;100.00;95856.56;5060895;28;20897;-85
2023/06/25 07:41:58;;;;;;;12.82;9.48;;;;;;;21.24;100.00;95644.81;5046287;28;20029;-86
2023/06/25 07:44:23;;;;;;;10.52;9.43;;;;;;;21.62;100.00;95725.50;5041162;28;20502;-86
2023/06/25 07:46:49;;;;;;;11.10;8.75;;;;;;;21.91;100.00;95611.34;5042956;28;20107;-87
2023/06/25 07:49:14;;;;;;;10.18;9.18;;;;;;;22.18;100.00;95529.94;5041906;28;20028;-85
2023/06/25 07:51:44;;;;;;;9.45;8.20;;;;;;;22.21;100.00;95445.03;5047730;28;20470;-84
2023/06/25 07:54:09;;;;;;;9.15;8.35;;;;;;;22.43;100.00;95491.72;5037166;28;20036;-83
2023/06/25 07:56:35;;;;;;;11.50;7.82;;;;;;;22.33;100.00;95372.69;5031367;28;20029;-83
2023/06/25 07:59:00;;;;;;;7.53;6.97;;;;;;;22.42;100.00;95373.13;5055279;28;20504;-83
2023/06/25 08:01:26;;;;;;;8.50;7.70;;;;;;;22.67;100.00;95394.78;5055225;28;20031;-81
2023/06/25 08:03:51;;;;;;;7.93;7.25;;;;;;;22.64;100.00;95426.94;5051116;28;20029;-84
2023/06/25 08:06:17;;;;;;;7.85;6.75;;;;;;;22.75;100.00;95367.22;5048966;28;20466;-83
2023/06/25 08:08:42;;;;;;;7.18;6.47;;;;;;;22.82;100.00;95334.34;5055771;28;20032;-81
2023/06/25 08:11:07;;;;;;;8.15;6.07;;;;;;;23.07;100.00;95267.91;5056830;28;20112;-82
2023/06/25 08:13:33;;;;;;;6.97;6.40;;;;;;;22.98;100.00;95200.63;5058733;28;20031;-84
2023/06/25 08:15:58;;;;;;;6.60;5.90;;;;;;;22.81;100.00;95083.59;5054255;28;20027;-80
2023/06/25 08:18:24;;;;;;;6.43;5.82;;;;;;;23.46;100.00;95139.19;5058117;28;20025;-79
2023/06/25 08:20:49;;;;;;;6.28;5.68;;;;;;;23.39;100.00;95015.06;5056858;28;20091;-84
2023/06/25 08:23:15;;;;;;;6.95;6.35;;;;;;;23.68;100.00;95062.47;5038372;28;20036;-83
2023/06/25 08:25:40;;;;;;;7.18;6.47;;;;;;;24.10;100.00;95031.63;5062122;28;20032;-83
2023/06/25 08:28:06;;;;;;;7.00;6.40;;;;;;;24.54;100.00;94993.31;5060814;28;20498;-84
2023/06/25 08:30:31;;;;;;;5.25;4.75;;;;;;;24.64;100.00;94936.94;5061539;28;20078;-79
2023/06/25 08:32:57;;;;;;;5.47;4.97;;;;;;;24.88;100.00;94868.41;5039620;28;20037;-89
2023/06/25 08:35:22;;;;;;;5.68;5.18;;;;;;;25.17;100.00;94843.78;5056886;28;20029;-77
2023/06/25 08:37:48;;;;;;;5.57;4.97;;;;;;;24.93;100.00;94788.91;5058597;28;20035;-80
2023/06/25 08:40:13;;;;;;;5.80;5.00;;;;;;;25.25;100.00;94807.19;5052141;28;20056;-80
2023/06/25 08:42:41;;;;;;;7.25;5.88;;;;;;;25.54;100.00;94822.34;5054868;28;20086;-86
2023/06/25 08:45:08;;;;;;;5.63;5.23;;;;;;;24.88;100.00;94812.75;5054945;28;20047;-81
2023/06/25 08:47:38;;;;;;;6.13;5.28;;;;;;;24.56;100.00;94805.75;5053771;28;20859;-80
2023/06/25 08:50:04;;;;;;;6.05;5.47;;;;;;;24.58;100.00;94822.19;5054771;28;20429;-82
2023/06/25 08:52:29;;;;;;;6.30;5.80;;;;;;;24.43;100.00;94840.69;5051836;28;20033;-82
2023/06/25 08:54:55;;;;;;;6.25;5.78;;;;;;;24.33;100.00;94856.53;5059344;28;20825;-80
2023/06/25 08:57:20;;;;;;;7.38;6.15;;;;;;;24.08;100.00;94841.28;5056128;28;20040;-83
2023/06/25 08:59:46;;;;;;;6.20;5.60;;;;;;;24.42;100.00;94875.38;5033353;28;20654;-84
2023/06/25 09:02:11;;;;;;;6.32;5.72;;;;;;;24.61;100.00;94819.03;5049195;28;20031;-85
2023/06/25 09:04:37;;;;;;;6.57;5.97;;;;;;;24.52;100.00;94830.38;5057244;28;20025;-81
2023/06/25 09:07:12;;;;;;;5.60;5.10;;;;;;;24.28;100.00;94843.25;5059447;28;20069;-83
2023/06/25 09:09:37;;;;;;;5.93;5.35;;;;;;;24.18;100.00;94840.56;5053095;28;20059;-86
2023/06/25 09:12:03;;;;;;;7.35;6.00;;;;;;;24.37;100.00;94849.66;5053895;28;20432;-80
2023/06/25 09:14:30;;;;;;;9.95;4.82;;;;;;;24.47;100.00;94823.22;5055923;28;20868;-84
2023/06/25 09:16:56;;;;;;;5.75;4.57;;;;;;;24.69;100.00;94799.19;5041186;28;20025;-84
2023/06/25 09:19:22;;;;;;;5.03;4.53;;;;;;;24.63;100.00;94766.56;5056417;28;20032;-86
2023/06/25 09:21:48;;;;;;;4.97;4.47;;;;;;;25.07;100.00;94788.13;5052358;28;20057;-81
2023/06/25 09:24:15;;;;;;;4.20;3.83;;;;;;;25.12;100.00;94776.72;5037077;28;20017;-86
2023/06/25 09:26:45;;;;;;;4.43;4.03;;;;;;;25.68;100.00;94786.25;5036681;28;20043;-85
2023/06/25 09:29:10;;;;;;;5.97;5.00;;;;;;;25.48;100.00;94750.97;5056360;28;20029;-83
2023/06/25 09:31:36;;;;;;;5.40;4.55;;;;;;;25.58;100.00;94743.81;5060583;28;20035;-86
2023/06/25 09:34:04;;;;;;;4.65;4.25;;;;;;;25.16;100.00;94727.41;5052251;28;20099;-82
2023/06/25 09:36:33;;;;;;;4.63;4.22;;;;;;;25.38;100.00;94741.16;5034144;28;20040;-84
2023/06/25 09:38:58;;;;;;;4.40;4.00;;;;;;;25.55;100.00;94747.00;5057851;28;20028;-85
2023/06/25 09:41:25;;;;;;;4.85;4.53;;;;;;;25.77;100.00;94737.91;5052182;28;20036;-84
2023/06/25 09:43:53;;;;;;;4.53;3.90;;;;;;;25.57;100.00;94734.25;5053053;28;20039;-83
2023/06/25 09:46:19;;;;;;;4.07;3.78;;;;;;;25.20;100.00;94725.00;5054675;28;20484;-83
2023/06/25 09:48:45;;;;;;;4.65;4.25;;;;;;;25.42;100.00;94731.59;5060998;28;20047;-83
2023/06/25 09:51:12;;;;;;;4.70;4.30;;;;;;;25.36;100.00;94735.34;5036909;28;20036;-80
2023/06/25 09:53:39;;;;;;;4.93;4.47;;;;;;;25.35;100.00;94717.81;5023582;28;20146;-86
2023/06/25 09:56:06;;;;;;;6.47;4.10;;;;;;;25.50;100.00;94720.47;5040237;28;20036;-83
2023/06/25 09:58:32;;;;;;;5.15;3.60;;;;;;;25.76;100.00;94707.91;5059361;28;20683;-83
2023/06/25 10:00:57;;;;;;;3.78;3.58;;;;;;;26.13;100.00;94710.16;5059784;28;20033;-82
2023/06/25 10:03:23;;;;;;;4.32;3.90;;;;;;;25.92;100.00;94706.00;5059118;28;20490;-82
2023/06/25 10:05:51;;;;;;;4.30;3.90;;;;;;;25.77;100.00;94700.75;5043104;28;20555;-83
2023/06/25 10:08:18;;;;;;;4.80;3.85;;;;;;;25.25;100.00;94686.00;5036618;28;20029;-85
2023/06/25 10:10:55;;;;;;;4.18;3.88;;;;;;;25.47;100.00;94688.34;5040514;28;20036;-82
2023/06/25 10:13:21;;;;;;;4.13;3.83;;;;;;;25.47;100.00;94693.66;5058367;28;20090;-83
2023/06/25 10:15:46;;;;;;;4.75;4.35;;;;;;;25.83;100.00;94697.00;5060370;28;20111;-80
2023/06/25 10:18:22;;;;;;;4.55;3.97;;;;;;;25.86;100.00;94678.69;5058918;28;20107;-81
2023/06/25 10:20:47;;;;;;;4.35;3.83;;;;;;;26.24;100.00;94681.69;5055812;28;20154;-80
2023/06/25 10:23:13;;;;;;;4.10;3.80;;;;;;;26.15;100.00;94670.84;5050251;28;20573;-79
2023/06/25 10:25:40;;;;;;;4.70;4.30;;;;;;;26.24;100.00;94677.19;5043327;28;20176;-81
2023/06/25 10:28:11;;;;;;;4.20;3.67;;;;;;;26.54;100.00;94674.34;5042420;28;20040;-85
2023/06/25 10:30:46;;;;;;;4.10;3.80;;;;;;;26.50;100.00;94665.31;5058650;28;20024;-87
2023/06/25 10:33:16;;;;;;;3.80;3.40;;;;;;;26.45;100.00;94661.91;5056815;28;20020;-80
2023/06/25 10:35:43;;;;;;;4.57;3.55;;;;;;;26.63;100.00;94662.03;5054927;28;20425;-81
2023/06/25 10:38:09;;;;;;;4.97;4.53;;;;;;;26.33;100.00;94654.28;5041299;28;20020;-81
2023/06/25 10:40:39;;;;;;;4.25;3.95;;;;;;;26.41;100.00;94647.59;5058718;28;20028;-81
2023/06/25 10:43:05;;;;;;;4.18;3.88;;;;;;;26.09;100.00;94638.22;5058143;28;20515;-81
2023/06/25 10:45:31;;;;;;;3.97;3.67;;;;;;;26.45;100.00;94643.31;5058965;28;20162;-83
2023/06/25 10:48:07;;;;;;;3.72;3.42;;;;;;;26.27;100.00;94630.69;5043539;28;20073;-83
2023/06/25 10:50:36;;;;;;;4.38;3.97;;;;;;;26.22;100.00;94626.22;5058163;28;20048;-82
2023/06/25 10:53:08;;;;;;;4.22;3.80;;;;;;;26.75;100.00;94631.66;5049707;28;20028;-83
2023/06/25 10:55:34;;;;;;;4.50;3.78;;;;;;;26.84;100.00;94622.84;5058341;28;20035;-85
2023/06/25 10:58:01;;;;;;;6.95;4.10;;;;;;;26.76;100.00;94615.41;5058545;28;20024;-87
2023/06/25 11:00:29;;;;;;;3.80;3.50;;;;;;;26.37;100.00;94620.78;5058091;28;20712;-83
2023/06/25 11:02:55;;;;;;;4.40;4.10;;;;;;;26.81;100.00;94623.38;5058887;28;20402;-84
2023/06/25 11:05:30;;;;;;;3.67;3.40;;;;;;;26.80;100.00;94616.47;5058263;28;20040;-82
2023/06/25 11:07:56;;;;;;;7.10;3.40;;;;;;;27.13;100.00;94617.50;5059286;28;20033;-87
2023/06/25 11:10:25;;;;;;;4.03;3.63;;;;;;;27.40;100.00;94607.06;5060172;28;20032;-83
2023/06/25 11:12:50;;;;;;;5.18;3.63;;;;;;;27.12;100.00;94598.09;5058152;28;20109;-87